Towson, MD

4:28 PM EDT on September 04, 2015 (GMT -0400)
Hampton | | Change Station
CLOSE
Current Station
Personal Weather Station
Location: Towson, MD
Elevation: 348 ft
Nearby Weather Stations

Elev 348 ft 39.42 °N, 76.59 °W | Updated 20 seconds ago

Partly Cloudy
Partly Cloudy
89.1 °F
Feels Like 94 °F
N
7.2
Wind Variable Wind from NE
Gusts 7.2 mph

Today
High -- | Low -- °F
--% Chance of Precip.
Yesterday
High -- | Low -- °F
Precip. -- in
6:37 AM 7:32 PM
Waning Gibbous, 56% visible
Pressure 30.03 in
Visibility -9999.0 miles
Clouds Scattered Clouds 6000 ft
Heat Index 94 °F
Dew Point 69 °F
Humidity 52%
Rainfall 0.00 in
Snow Depth Not available.
UV 4 out of 12
Pollen 8.20 out of 12
Air Quality Not available.
Flu Activity Not available.
METAR KMTN 041945Z 10006KT SCT060 32/22 A3003
Pressure 30.03 in
Visibility -9999.0 miles
Clouds Scattered Clouds 6000 ft
Heat Index 94 °F
Dew Point 69 °F
Humidity 52%
Rainfall 0.00 in
Snow Depth Not available.
UV 4 out of 12
Pollen 8.20 out of 12
Air Quality Not available.
Flu Activity Not available.
METAR KMTN 041945Z 10006KT SCT060 32/22 A3003
Nowcast | as of 4:21 PM EDT on September 4, 2015

a strong thunderstorm will affect east central Baltimore and south central Harford counties... At 421 PM EDT...a strong thunderstorm was over Newtown...or 12 miles east of Middle River...moving southwest at 15 mph. Winds in excess of 30 mph and pea size hail are possible with this storm. Locations impacted include... Bowleys Quarters and Martin State Airport. Lat...Lon 3935 7623 3935 7626 3930 7628 3933 7630 3930 7634 3931 7634 3935 7630 3930 7639 3928 7638 3934 7644 3937 7634 3934 7633 3936 7630 3938 7630 3939 7628 3936 7627 3937 7625 3940 7627 3943 7612 time...Mot...loc 2021z 057deg 11kt 3933 7615

×

10-Day Weather Forecast

×

Almanac

Astronomy

Sep. 04, 2015 Rise Set
Actual Time
Civil Twilight
Nautical Twilight
Astronomical Twilight
Moon
Length of Visible Light
Length of Day
Tomorrow will be .
, % of the Moon is Illuminated

Today's Extremes

State Highs State Lows

Community

WunderPhotos

Upload Photos

1,852,272 photos uploaded!

WunderBlogs® & News

Nearby

Air Quality

  Air Quality AQ Index Pollutant
Not available.

Snow Depth

Station Depth Elevation

Earthquake Activity

City Distance Mag. Time & Date
Minimum magnitude displayed is 2.5.

Coastal Water Temperatures

Place Temperature

Stations

Nearby Weather Stations

Station Location Temp. Windchill Dew Point Humidity Wind Precip. Elev Updated Type